Time;durP1;ratioP1;P1;durP2;ratioP2;P2;SDS_P1;SDS_P2;PMS_P1;PMS_P2;Temp;Humidity;BMP_temperature;BMP_pressure;BME280_temperature;BME280_humidity;BME280_pressure;Samples;Min_cycle;Max_cycle;Signal;HPM_P1;HPM_P2
2021/01/01 00:00:33;;;;;;;4.90;4.40;;;21.60;50.90;;;;;;5094806;28;20206;-69
2021/01/01 00:03:00;;;;;;;4.67;4.10;;;21.60;50.80;;;;;;5094483;28;20180;-69
2021/01/01 00:05:30;;;;;;;5.47;4.83;;;21.60;50.80;;;;;;5094441;28;20161;-69
2021/01/01 00:07:55;;;;;;;5.60;4.30;;;21.60;50.80;;;;;;5094279;28;20419;-69
2021/01/01 00:10:21;;;;;;;5.10;4.63;;;21.60;50.80;;;;;;5094310;28;20400;-68
2021/01/01 00:12:47;;;;;;;8.50;4.23;;;21.60;50.80;;;;;;5094231;28;20173;-70
2021/01/01 00:15:13;;;;;;;5.20;3.90;;;21.60;50.80;;;;;;5094532;28;20172;-69
2021/01/01 00:17:39;;;;;;;6.40;4.57;;;21.60;50.80;;;;;;5094082;28;20522;-69
2021/01/01 00:20:07;;;;;;;4.97;4.23;;;21.60;50.80;;;;;;5094339;28;20396;-69
2021/01/01 00:22:32;;;;;;;3.73;3.30;;;21.60;50.70;;;;;;5094327;28;20418;-69
2021/01/01 00:24:58;;;;;;;4.57;3.67;;;21.60;50.80;;;;;;5110526;22;20491;-70
2021/01/01 00:27:28;;;;;;;5.80;4.03;;;21.60;50.90;;;;;;5072236;28;20324;-69
2021/01/01 00:29:54;;;;;;;5.07;4.57;;;21.50;50.80;;;;;;5071566;28;20768;-70
2021/01/01 00:32:19;;;;;;;4.27;3.87;;;21.60;50.80;;;;;;5073988;28;20399;-69
2021/01/01 00:34:45;;;;;;;4.80;4.33;;;21.60;50.80;;;;;;5073061;28;20174;-69
2021/01/01 00:37:11;;;;;;;6.13;4.00;;;21.50;50.80;;;;;;5073397;28;20214;-69
2021/01/01 00:39:36;;;;;;;4.60;4.20;;;21.50;50.80;;;;;;5073375;28;20255;-69
2021/01/01 00:42:03;;;;;;;5.50;4.27;;;21.50;50.80;;;;;;5073409;28;20167;-69
2021/01/01 00:44:28;;;;;;;5.20;4.50;;;21.50;50.80;;;;;;5073058;28;20638;-69
2021/01/01 00:46:54;;;;;;;6.43;5.40;;;21.50;50.80;;;;;;5073590;28;20436;-69
2021/01/01 00:49:19;;;;;;;5.20;3.50;;;21.50;50.80;;;;;;5073407;28;20638;-69
2021/01/01 00:51:46;;;;;;;4.37;3.67;;;21.50;50.80;;;;;;5073331;28;20186;-69
2021/01/01 00:54:12;;;;;;;4.43;3.87;;;21.50;50.80;;;;;;5073582;28;20155;-69
2021/01/01 00:56:38;;;;;;;4.40;4.00;;;21.50;50.80;;;;;;5073165;28;20452;-69
2021/01/01 00:59:03;;;;;;;5.30;4.43;;;21.50;50.70;;;;;;5073195;28;20466;-69
2021/01/01 01:01:29;;;;;;;4.27;3.87;;;21.50;50.70;;;;;;5073227;28;20246;-69
2021/01/01 01:03:56;;;;;;;5.30;4.80;;;21.50;50.70;;;;;;5071863;28;20581;-69
2021/01/01 01:06:23;;;;;;;4.40;4.00;;;21.50;50.70;;;;;;5073096;28;20186;-69
2021/01/01 01:08:49;;;;;;;4.33;3.93;;;21.50;50.70;;;;;;5073382;28;20408;-69
2021/01/01 01:11:15;;;;;;;5.20;4.57;;;21.50;50.60;;;;;;5073382;28;20401;-70
2021/01/01 01:13:41;;;;;;;4.27;3.80;;;21.50;50.60;;;;;;5073083;28;20466;-69
2021/01/01 01:16:06;;;;;;;4.23;3.80;;;21.50;50.60;;;;;;5072890;28;20448;-69
2021/01/01 01:18:33;;;;;;;3.73;3.43;;;21.50;50.60;;;;;;5073276;28;20237;-70
2021/01/01 01:20:59;;;;;;;4.57;3.63;;;21.50;50.60;;;;;;5072955;28;20175;-69
2021/01/01 01:23:25;;;;;;;4.40;4.00;;;21.40;50.60;;;;;;5072942;28;20408;-69
2021/01/01 01:25:51;;;;;;;3.80;3.43;;;21.50;50.60;;;;;;5072749;28;20494;-69
2021/01/01 01:28:17;;;;;;;4.30;3.90;;;21.50;50.60;;;;;;5072823;28;20448;-69
2021/01/01 01:30:43;;;;;;;4.43;4.03;;;21.50;50.60;;;;;;5073147;28;20417;-69
2021/01/01 01:33:09;;;;;;;5.20;4.40;;;21.50;50.60;;;;;;5073095;28;20991;-69
2021/01/01 01:35:35;;;;;;;4.20;3.80;;;21.50;50.60;;;;;;5073081;28;20645;-69
2021/01/01 01:38:02;;;;;;;4.47;3.70;;;21.50;50.60;;;;;;5072754;28;20186;-69
2021/01/01 01:40:27;;;;;;;4.83;3.73;;;21.50;50.60;;;;;;5073098;28;20899;-69
2021/01/01 01:42:53;;;;;;;4.47;3.53;;;21.50;50.60;;;;;;5072786;28;20404;-69
2021/01/01 01:45:19;;;;;;;3.57;3.27;;;21.50;50.60;;;;;;5072973;28;20641;-69
2021/01/01 01:47:46;;;;;;;4.93;4.00;;;21.50;51.10;;;;;;5071385;28;20651;-69
2021/01/01 01:50:12;;;;;;;4.67;3.80;;;21.40;50.50;;;;;;5072698;28;20802;-69
2021/01/01 01:52:38;;;;;;;4.50;3.93;;;21.50;50.60;;;;;;5075960;28;20393;-68
2021/01/01 01:55:04;;;;;;;4.03;3.60;;;21.50;50.60;;;;;;5077192;28;20407;-70
2021/01/01 01:57:32;;;;;;;4.80;4.33;;;21.40;50.50;;;;;;5073839;28;20456;-70
2021/01/01 02:00:05;;;;;;;3.77;3.43;;;21.40;50.50;;;;;;5076845;28;20903;-69
2021/01/01 02:02:30;;;;;;;4.20;3.80;;;21.40;50.50;;;;;;5076833;28;20388;-70
2021/01/01 02:04:56;;;;;;;4.60;3.87;;;21.40;50.60;;;;;;5076794;28;20903;-69
2021/01/01 02:07:23;;;;;;;4.40;3.87;;;21.40;50.50;;;;;;5076584;28;20205;-69
2021/01/01 02:09:49;;;;;;;4.17;3.77;;;21.40;50.50;;;;;;5076554;28;20702;-69
2021/01/01 02:12:17;;;;;;;3.67;3.13;;;21.40;50.50;;;;;;5076337;28;20409;-69
2021/01/01 02:14:43;;;;;;;3.93;3.53;;;21.40;50.50;;;;;;5076295;28;20200;-69
2021/01/01 02:17:09;;;;;;;4.20;3.43;;;21.40;51.10;;;;;;5074829;28;20456;-69
2021/01/01 02:19:35;;;;;;;3.70;3.40;;;21.40;50.50;;;;;;5074941;28;20427;-69
2021/01/01 02:22:01;;;;;;;4.70;4.17;;;21.40;50.50;;;;;;5076119;28;20178;-69
2021/01/01 02:24:28;;;;;;;3.70;3.37;;;21.40;50.50;;;;;;5076359;28;20397;-69
2021/01/01 02:26:54;;;;;;;5.07;3.87;;;21.40;50.50;;;;;;5075881;28;20452;-69
2021/01/01 02:29:23;;;;;;;3.80;3.37;;;21.40;50.50;;;;;;5076244;28;20413;-69
2021/01/01 02:31:48;;;;;;;4.40;3.90;;;21.40;50.50;;;;;;5075905;28;20879;-69
2021/01/01 02:34:14;;;;;;;3.97;3.47;;;21.40;50.60;;;;;;5075939;28;20409;-69
2021/01/01 02:36:39;;;;;;;4.87;3.90;;;21.40;50.50;;;;;;5075773;28;20206;-69
2021/01/01 02:39:05;;;;;;;4.33;3.93;;;21.40;50.60;;;;;;5075840;28;20177;-69
2021/01/01 02:41:31;;;;;;;3.90;3.50;;;21.40;50.50;;;;;;5075801;28;20618;-69
2021/01/01 02:43:56;;;;;;;3.93;3.20;;;21.40;50.60;;;;;;5075831;28;20162;-69
2021/01/01 02:46:22;;;;;;;3.50;3.10;;;21.40;51.10;;;;;;5075917;28;20225;-69
2021/01/01 02:48:47;;;;;;;4.00;3.57;;;21.40;50.60;;;;;;5075736;28;20194;-69
2021/01/01 02:51:13;;;;;;;3.87;3.53;;;21.40;50.60;;;;;;5074403;28;20649;-69
2021/01/01 02:53:38;;;;;;;4.17;3.60;;;21.40;50.60;;;;;;5075568;28;20253;-69
2021/01/01 02:56:04;;;;;;;3.57;3.27;;;21.40;50.60;;;;;;5074190;28;20198;-69
2021/01/01 02:58:30;;;;;;;3.80;3.13;;;21.40;50.60;;;;;;5075611;28;20166;-70
2021/01/01 03:00:55;;;;;;;3.57;3.23;;;21.40;50.60;;;;;;5075504;28;20178;-69
2021/01/01 03:03:21;;;;;;;4.97;3.60;;;21.40;50.60;;;;;;5074733;28;20174;-69
2021/01/01 03:05:47;;;;;;;3.73;3.43;;;21.40;50.50;;;;;;5074102;28;20201;-70
2021/01/01 03:08:13;;;;;;;4.23;3.83;;;21.40;50.50;;;;;;5075273;28;20699;-70
2021/01/01 03:10:39;;;;;;;4.30;3.70;;;21.40;50.50;;;;;;5075030;28;20972;-70
2021/01/01 03:13:05;;;;;;;3.90;3.27;;;21.50;50.60;;;;;;5075141;28;20762;-70
2021/01/01 03:15:30;;;;;;;4.47;3.70;;;21.40;50.50;;;;;;5075165;28;20413;-70
2021/01/01 03:17:56;;;;;;;4.27;3.20;;;21.40;50.50;;;;;;5073719;28;20244;-70
2021/01/01 03:20:22;;;;;;;5.30;3.47;;;21.40;50.50;;;;;;5075263;28;20648;-69
2021/01/01 03:22:48;;;;;;;3.80;3.23;;;21.40;50.50;;;;;;5075372;28;20171;-70
2021/01/01 03:25:14;;;;;;;3.67;3.30;;;21.40;50.50;;;;;;5075047;28;20217;-70
2021/01/01 03:27:39;;;;;;;4.40;3.83;;;21.40;50.50;;;;;;5075162;28;20194;-70
2021/01/01 03:30:06;;;;;;;3.80;3.00;;;21.40;50.40;;;;;;5074912;28;20174;-70
2021/01/01 03:32:32;;;;;;;3.63;3.20;;;21.40;50.50;;;;;;5074900;28;20174;-70
2021/01/01 03:34:58;;;;;;;3.40;3.10;;;21.40;50.50;;;;;;5075054;28;20423;-70
2021/01/01 03:37:24;;;;;;;3.77;3.37;;;21.40;50.50;;;;;;5074665;28;20230;-69
2021/01/01 03:39:50;;;;;;;3.67;2.77;;;21.30;50.40;;;;;;5075019;28;20174;-69
2021/01/01 03:42:15;;;;;;;4.50;3.10;;;21.40;50.50;;;;;;5074630;28;20404;-69
2021/01/01 03:44:41;;;;;;;3.03;2.73;;;21.40;50.50;;;;;;5074709;28;20178;-70
2021/01/01 03:47:07;;;;;;;3.73;3.43;;;21.40;50.50;;;;;;5075050;28;20231;-69
2021/01/01 03:49:33;;;;;;;4.20;3.80;;;21.40;51.10;;;;;;5074808;28;20236;-68
2021/01/01 03:51:58;;;;;;;3.90;3.33;;;21.40;50.50;;;;;;5073161;28;20179;-68
2021/01/01 03:54:24;;;;;;;3.30;3.00;;;21.40;50.50;;;;;;5074701;28;20409;-68
2021/01/01 03:56:49;;;;;;;3.57;3.27;;;21.30;50.40;;;;;;5074420;28;20333;-68
2021/01/01 03:59:15;;;;;;;3.47;3.17;;;21.30;50.40;;;;;;5074424;28;20162;-69
2021/01/01 04:01:41;;;;;;;4.20;3.37;;;21.30;50.40;;;;;;5074339;28;20163;-68
2021/01/01 04:04:06;;;;;;;3.93;3.53;;;21.30;50.40;;;;;;5074294;28;20167;-68
2021/01/01 04:06:32;;;;;;;3.20;2.90;;;21.30;50.40;;;;;;5074402;28;20190;-68
2021/01/01 04:08:57;;;;;;;3.43;3.13;;;21.30;50.40;;;;;;5074161;28;20170;-68
2021/01/01 04:11:23;;;;;;;3.73;3.33;;;21.30;50.40;;;;;;5074367;28;20178;-68
2021/01/01 04:13:48;;;;;;;4.00;3.60;;;21.30;50.40;;;;;;5074144;28;20261;-68
2021/01/01 04:16:14;;;;;;;3.73;3.07;;;21.30;50.40;;;;;;5073268;28;20689;-68
2021/01/01 04:18:40;;;;;;;4.00;3.17;;;21.30;50.50;;;;;;5074516;28;20197;-68
2021/01/01 04:21:07;;;;;;;2.97;2.67;;;21.30;50.50;;;;;;5073948;28;20176;-68
2021/01/01 04:23:34;;;;;;;3.40;3.10;;;21.30;50.50;;;;;;5073986;28;20169;-69
2021/01/01 04:26:00;;;;;;;3.27;2.97;;;21.30;50.40;;;;;;5073432;28;20431;-68
2021/01/01 04:28:26;;;;;;;3.33;3.03;;;21.30;50.50;;;;;;5073739;28;20448;-68
2021/01/01 04:30:51;;;;;;;4.13;3.13;;;21.30;50.50;;;;;;5073717;28;20506;-68
2021/01/01 04:33:17;;;;;;;3.00;2.73;;;21.30;50.40;;;;;;5073472;28;20240;-68
2021/01/01 04:35:42;;;;;;;4.80;3.20;;;21.30;50.50;;;;;;5073559;28;20166;-68
2021/01/01 04:38:08;;;;;;;3.70;3.10;;;21.30;50.50;;;;;;5073491;28;20232;-68
2021/01/01 04:40:34;;;;;;;2.73;2.53;;;21.30;50.50;;;;;;5073892;28;20167;-69
2021/01/01 04:42:59;;;;;;;4.00;3.10;;;21.30;50.50;;;;;;5074038;28;20175;-68
2021/01/01 04:45:27;;;;;;;3.90;3.50;;;21.30;50.40;;;;;;5073528;28;20167;-68
2021/01/01 04:47:53;;;;;;;3.50;3.20;;;21.30;50.50;;;;;;5073628;28;20328;-68
2021/01/01 04:50:19;;;;;;;4.00;3.00;;;21.30;50.50;;;;;;5073393;28;20396;-68
2021/01/01 04:52:49;;;;;;;3.80;3.17;;;21.30;50.50;;;;;;5073632;28;20417;-68
2021/01/01 04:55:16;;;;;;;3.37;3.03;;;21.30;50.50;;;;;;5073546;28;20170;-68
2021/01/01 04:57:41;;;;;;;4.20;3.20;;;21.30;50.50;;;;;;5073144;28;20484;-68
2021/01/01 05:00:08;;;;;;;3.33;2.80;;;21.30;50.50;;;;;;5073535;28;20962;-65
2021/01/01 05:02:33;;;;;;;3.10;2.80;;;21.30;50.50;;;;;;5073281;28;20190;-68
2021/01/01 05:04:59;;;;;;;3.47;3.17;;;21.30;50.50;;;;;;5073764;28;20404;-68
2021/01/01 05:07:28;;;;;;;3.33;3.00;;;21.30;50.50;;;;;;5073243;28;20293;-68
2021/01/01 05:09:53;;;;;;;3.40;3.00;;;21.30;50.50;;;;;;5073401;28;20166;-68
2021/01/01 05:12:19;;;;;;;4.07;3.67;;;21.20;50.50;;;;;;5073095;28;20413;-68
2021/01/01 05:14:44;;;;;;;3.37;2.60;;;21.30;50.60;;;;;;5073623;28;20625;-68
2021/01/01 05:17:10;;;;;;;3.23;2.93;;;21.30;50.60;;;;;;5071663;28;20225;-68
2021/01/01 05:19:36;;;;;;;3.90;3.23;;;21.30;50.60;;;;;;5073314;28;20174;-68
2021/01/01 05:22:07;;;;;;;3.40;2.77;;;21.30;50.50;;;;;;5073284;28;20284;-68
2021/01/01 05:24:39;;;;;;;3.80;3.03;;;21.30;50.50;;;;;;5073290;28;20167;-68
2021/01/01 05:27:17;;;;;;;3.43;3.10;;;21.30;50.50;;;;;;5072457;28;20433;-68
2021/01/01 05:29:53;;;;;;;3.00;2.70;;;21.30;50.50;;;;;;5073240;28;20829;-67
2021/01/01 05:32:24;;;;;;;4.53;3.57;;;21.30;50.50;;;;;;5072961;28;20450;-68
2021/01/01 05:34:51;;;;;;;3.40;3.00;;;21.30;50.50;;;;;;5073106;28;20488;-68
2021/01/01 05:37:26;;;;;;;3.13;2.80;;;21.30;50.50;;;;;;5072953;28;20491;-68
2021/01/01 05:40:08;;;;;;;2.93;2.50;;;21.30;50.50;;;;;;5072881;28;20401;-69
2021/01/01 05:42:35;;;;;;;3.53;2.80;;;21.30;50.50;;;;;;5073330;28;20405;-68
2021/01/01 05:45:19;;;;;;;2.40;2.20;;;21.30;50.50;;;;;;5072779;28;20491;-68
2021/01/01 05:48:07;;;;;;;2.80;2.57;;;21.30;50.60;;;;;;5072660;28;20553;-68
2021/01/01 05:50:34;;;;;;;3.10;2.80;;;21.30;50.50;;;;;;5072703;28;20396;-68
2021/01/01 05:53:16;;;;;;;2.90;2.57;;;21.30;50.60;;;;;;5072739;28;20789;-68
2021/01/01 05:55:43;;;;;;;2.80;2.57;;;21.30;50.60;;;;;;5072952;28;20873;-68
2021/01/01 05:58:21;;;;;;;3.30;3.00;;;21.20;50.70;;;;;;5072552;28;20421;-68
2021/01/01 06:00:54;;;;;;;3.77;3.47;;;21.30;50.70;;;;;;5072598;28;20493;-68
2021/01/01 06:03:22;;;;;;;3.80;3.07;;;21.30;50.80;;;;;;5072908;28;20446;-68
2021/01/01 06:05:53;;;;;;;3.53;2.67;;;21.30;50.80;;;;;;5072516;28;20409;-68
2021/01/01 06:08:28;;;;;;;3.20;2.83;;;21.30;50.80;;;;;;5072849;28;20845;-68
2021/01/01 06:11:04;;;;;;;3.10;2.53;;;21.30;50.80;;;;;;5072596;28;20396;-68
2021/01/01 06:13:34;;;;;;;2.97;2.60;;;21.30;50.80;;;;;;5073303;28;20763;-68
2021/01/01 06:16:02;;;;;;;3.20;2.90;;;21.30;50.90;;;;;;5071930;28;20452;-68
2021/01/01 06:18:32;;;;;;;2.67;2.47;;;21.30;50.80;;;;;;5072540;28;20417;-68
2021/01/01 06:21:08;;;;;;;3.20;2.80;;;21.40;50.90;;;;;;5071079;28;20466;-68
2021/01/01 06:23:37;;;;;;;3.33;3.00;;;21.40;50.90;;;;;;5072469;28;20440;-68
2021/01/01 06:26:05;;;;;;;3.03;2.40;;;21.40;50.90;;;;;;5072286;28;20954;-68
2021/01/01 06:28:35;;;;;;;2.83;2.53;;;21.40;50.90;;;;;;5072428;28;20417;-68
2021/01/01 06:31:01;;;;;;;2.30;2.10;;;21.40;51.50;;;;;;5072355;28;20405;-68
2021/01/01 06:33:27;;;;;;;2.50;2.23;;;21.40;50.90;;;;;;5072590;28;20452;-68
2021/01/01 06:35:53;;;;;;;3.30;2.53;;;21.40;50.90;;;;;;5072484;28;20513;-69
2021/01/01 06:38:36;;;;;;;3.40;2.83;;;21.40;50.90;;;;;;5073193;28;20470;-68
2021/01/01 06:41:13;;;;;;;2.93;2.63;;;21.40;50.80;;;;;;5075839;28;20408;-68
2021/01/01 06:43:50;;;;;;;2.53;2.20;;;21.40;50.80;;;;;;5076087;28;20399;-68
2021/01/01 06:46:40;;;;;;;3.40;2.93;;;21.40;50.90;;;;;;5075993;28;20436;-68
2021/01/01 06:49:07;;;;;;;2.70;2.40;;;21.40;50.80;;;;;;5076027;28;20403;-68
2021/01/01 06:51:34;;;;;;;3.27;2.97;;;21.40;50.80;;;;;;5075756;28;20811;-68
2021/01/01 06:54:12;;;;;;;3.60;2.93;;;21.40;50.80;;;;;;5074332;28;20419;-68
2021/01/01 06:56:41;;;;;;;2.93;2.40;;;21.40;50.80;;;;;;5075475;28;20455;-68
2021/01/01 06:59:08;;;;;;;3.73;2.70;;;21.40;50.80;;;;;;5075789;28;20451;-68
2021/01/01 07:01:45;;;;;;;3.40;2.83;;;21.40;50.90;;;;;;5075979;28;20408;-68
2021/01/01 07:04:11;;;;;;;2.30;1.83;;;21.40;50.80;;;;;;5076043;28;20384;-68
2021/01/01 07:06:41;;;;;;;3.40;3.10;;;21.40;50.90;;;;;;5075315;28;20425;-68
2021/01/01 07:09:09;;;;;;;2.70;2.40;;;21.40;50.90;;;;;;5075631;28;20416;-68
2021/01/01 07:11:36;;;;;;;3.70;2.50;;;21.40;50.90;;;;;;5075280;28;20439;-68
2021/01/01 07:14:07;;;;;;;2.60;2.40;;;21.40;50.90;;;;;;5075228;28;20404;-68
2021/01/01 07:16:38;;;;;;;3.97;2.90;;;21.40;50.90;;;;;;5075296;28;20971;-68
2021/01/01 07:19:04;;;;;;;2.70;2.50;;;21.40;50.90;;;;;;5075096;28;20785;-68
2021/01/01 07:21:30;;;;;;;2.87;2.60;;;21.40;51.50;;;;;;5075318;28;20475;-68
2021/01/01 07:23:56;;;;;;;2.60;2.40;;;21.40;50.90;;;;;;5075039;28;20397;-68
2021/01/01 07:26:27;;;;;;;2.50;2.30;;;21.40;50.90;;;;;;5074917;28;20778;-68
2021/01/01 07:28:55;;;;;;;2.63;2.23;;;21.40;50.90;;;;;;5075052;28;20393;-68
2021/01/01 07:31:21;;;;;;;2.50;2.30;;;21.40;50.90;;;;;;5074886;28;20424;-68
2021/01/01 07:33:47;;;;;;;2.47;2.27;;;21.40;50.90;;;;;;5074879;28;20412;-67
2021/01/01 07:36:14;;;;;;;3.20;2.60;;;21.40;50.90;;;;;;5073471;28;20289;-68
2021/01/01 07:38:41;;;;;;;2.83;2.00;;;21.40;50.90;;;;;;5074768;28;20553;-68
2021/01/01 07:41:07;;;;;;;2.70;2.03;;;21.50;51.00;;;;;;5074770;28;20418;-68
2021/01/01 07:43:33;;;;;;;2.93;2.63;;;21.40;50.90;;;;;;5074916;28;20495;-68
2021/01/01 07:46:01;;;;;;;3.00;2.70;;;21.40;50.90;;;;;;5074565;28;20194;-68
2021/01/01 07:48:27;;;;;;;2.43;2.20;;;21.40;50.90;;;;;;5075127;28;20423;-68
2021/01/01 07:50:57;;;;;;;3.30;2.53;;;21.40;50.80;;;;;;5074511;28;20503;-68
2021/01/01 07:53:23;;;;;;;2.93;2.30;;;21.50;50.90;;;;;;5074468;28;20163;-68
2021/01/01 07:55:49;;;;;;;2.70;2.50;;;21.50;50.90;;;;;;5074415;28;20469;-68
2021/01/01 07:58:15;;;;;;;4.43;4.03;;;21.50;50.90;;;;;;5075336;28;20195;-66
2021/01/01 08:00:44;;;;;;;4.97;3.40;;;21.40;50.70;;;;;;5056494;28;20167;-66
2021/01/01 08:03:11;;;;;;;4.43;3.33;;;21.40;50.70;;;;;;5074330;28;20409;-68
2021/01/01 08:05:37;;;;;;;3.60;3.23;;;21.40;50.60;;;;;;5074314;28;20400;-65
2021/01/01 08:08:12;;;;;;;4.10;3.77;;;21.40;50.50;;;;;;5072943;28;20424;-68
2021/01/01 08:10:39;;;;;;;4.80;3.87;;;21.40;50.50;;;;;;5074386;28;20400;-68
2021/01/01 08:13:15;;;;;;;3.07;2.77;;;21.40;50.40;;;;;;5074150;28;20393;-68
2021/01/01 08:15:42;;;;;;;2.90;2.70;;;21.40;50.30;;;;;;5074478;28;20404;-68
2021/01/01 08:18:15;;;;;;;4.17;3.50;;;21.40;50.30;;;;;;5074222;28;20439;-68
2021/01/01 08:20:49;;;;;;;4.10;3.70;;;21.40;50.10;;;;;;5074165;28;20393;-68
2021/01/01 08:23:19;;;;;;;3.30;2.97;;;21.40;50.10;;;;;;5074122;28;20479;-68
2021/01/01 08:25:46;;;;;;;4.00;3.17;;;21.40;50.00;;;;;;5073882;28;20447;-68
2021/01/01 08:28:19;;;;;;;3.53;3.23;;;21.40;50.00;;;;;;5074017;28;20440;-68
2021/01/01 08:30:51;;;;;;;3.47;3.07;;;21.40;49.90;;;;;;5074015;28;20415;-68
2021/01/01 08:33:17;;;;;;;3.27;2.97;;;21.40;49.80;;;;;;5074053;28;20750;-68
2021/01/01 08:35:44;;;;;;;3.90;3.33;;;21.30;49.80;;;;;;5073569;28;20411;-68
2021/01/01 08:38:19;;;;;;;2.97;2.60;;;21.30;49.80;;;;;;5073725;28;20494;-68
2021/01/01 08:40:56;;;;;;;3.70;3.30;;;21.40;49.80;;;;;;5073478;28;20415;-68
2021/01/01 08:43:23;;;;;;;3.10;2.80;;;21.30;49.70;;;;;;5074232;28;20393;-68
2021/01/01 08:45:49;;;;;;;3.53;2.83;;;21.30;49.70;;;;;;5073457;28;20400;-68
2021/01/01 08:48:16;;;;;;;2.83;2.53;;;21.30;49.70;;;;;;5073366;28;20512;-68
2021/01/01 08:50:47;;;;;;;4.33;3.00;;;21.30;49.80;;;;;;5073658;28;20181;-68
2021/01/01 08:53:13;;;;;;;3.80;3.30;;;21.30;49.80;;;;;;5073654;28;20731;-68
2021/01/01 08:55:39;;;;;;;3.10;2.40;;;21.30;49.80;;;;;;5073279;28;21025;-68
2021/01/01 08:58:11;;;;;;;2.67;2.43;;;21.30;49.90;;;;;;5072681;28;20447;-68
2021/01/01 09:00:39;;;;;;;3.23;2.30;;;21.30;50.00;;;;;;5071459;28;20397;-68
2021/01/01 09:03:05;;;;;;;3.10;2.67;;;21.30;50.10;;;;;;5071941;28;20878;-68
2021/01/01 09:05:32;;;;;;;3.17;2.87;;;21.30;50.10;;;;;;5073126;28;20409;-67
2021/01/01 09:08:11;;;;;;;3.60;2.57;;;21.30;50.20;;;;;;5073004;28;20440;-67
2021/01/01 09:10:45;;;;;;;3.50;2.63;;;21.30;50.10;;;;;;5071892;28;20554;-67
2021/01/01 09:13:26;;;;;;;3.50;2.40;;;21.30;50.20;;;;;;5073142;28;20747;-67
2021/01/01 09:16:11;;;;;;;2.80;2.27;;;21.40;50.30;;;;;;5073024;28;20420;-67
2021/01/01 09:18:36;;;;;;;3.90;2.43;;;21.40;50.40;;;;;;5073053;28;20416;-68
2021/01/01 09:21:16;;;;;;;4.03;2.57;;;21.40;50.30;;;;;;5073047;28;20448;-69
2021/01/01 09:23:49;;;;;;;3.70;2.83;;;21.40;50.20;;;;;;5073272;28;20158;-69
2021/01/01 09:26:21;;;;;;;3.40;2.80;;;21.40;50.20;;;;;;5071518;28;20524;-69
2021/01/01 09:28:49;;;;;;;3.30;2.60;;;21.50;50.20;;;;;;5073282;28;20404;-67
2021/01/01 09:31:17;;;;;;;3.20;2.70;;;21.40;50.20;;;;;;5072928;28;20407;-67
2021/01/01 09:34:03;;;;;;;3.60;2.50;;;21.50;50.20;;;;;;5072901;28;20836;-68
2021/01/01 09:36:37;;;;;;;2.90;2.40;;;21.50;50.20;;;;;;5072997;28;20463;-67
2021/01/01 09:39:06;;;;;;;3.80;2.70;;;21.50;50.30;;;;;;5072672;28;20428;-68
2021/01/01 09:41:32;;;;;;;3.80;3.07;;;21.50;50.30;;;;;;5073588;28;20416;-68
2021/01/01 09:43:58;;;;;;;2.53;2.30;;;21.60;50.30;;;;;;5072828;28;20449;-68
2021/01/01 09:46:23;;;;;;;4.50;2.23;;;21.60;50.30;;;;;;5072948;28;20534;-67
2021/01/01 09:48:49;;;;;;;4.80;2.83;;;21.60;50.40;;;;;;5073019;28;20174;-68
2021/01/01 09:51:15;;;;;;;2.90;2.27;;;21.60;50.30;;;;;;5072846;28;20175;-68
2021/01/01 09:53:41;;;;;;;4.27;2.70;;;21.60;50.30;;;;;;5072780;28;20541;-67
2021/01/01 09:56:06;;;;;;;3.07;2.80;;;21.60;50.40;;;;;;5072507;28;20194;-67
2021/01/01 09:58:32;;;;;;;4.20;2.60;;;21.60;50.30;;;;;;5072911;28;20171;-68
2021/01/01 10:00:57;;;;;;;4.37;3.13;;;21.60;50.30;;;;;;5072627;28;20170;-67
2021/01/01 10:03:23;;;;;;;3.00;2.70;;;21.70;50.40;;;;;;5073203;28;20177;-68
2021/01/01 10:05:49;;;;;;;4.63;2.73;;;21.60;50.30;;;;;;5072598;28;20572;-67
2021/01/01 10:08:15;;;;;;;4.07;2.40;;;21.70;51.00;;;;;;5072430;28;20206;-67
2021/01/01 10:10:43;;;;;;;3.30;2.30;;;21.70;50.40;;;;;;5072911;28;20170;-67
2021/01/01 10:13:09;;;;;;;5.00;3.27;;;21.70;50.40;;;;;;5074883;28;20409;-69
2021/01/01 10:15:34;;;;;;;3.60;2.40;;;21.70;50.40;;;;;;5076313;28;20407;-67
2021/01/01 10:18:00;;;;;;;3.30;2.50;;;21.70;50.40;;;;;;5076335;28;20295;-66
2021/01/01 10:20:25;;;;;;;2.53;2.20;;;21.70;50.40;;;;;;5076330;28;20162;-68
2021/01/01 10:22:51;;;;;;;3.77;2.60;;;21.80;50.40;;;;;;5075012;28;20174;-67
2021/01/01 10:25:17;;;;;;;4.30;2.97;;;21.80;50.50;;;;;;5076106;28;20174;-67
2021/01/01 10:27:42;;;;;;;6.97;2.67;;;21.80;50.40;;;;;;5076103;28;20285;-67
2021/01/01 10:30:08;;;;;;;3.27;2.30;;;21.80;50.50;;;;;;5076013;28;20564;-67
2021/01/01 10:32:34;;;;;;;4.27;2.40;;;21.80;50.40;;;;;;5076589;28;20643;-66
2021/01/01 10:35:00;;;;;;;3.50;2.80;;;21.90;50.50;;;;;;5076278;28;20499;-68
2021/01/01 10:37:25;;;;;;;2.50;2.20;;;21.90;50.50;;;;;;5075889;28;20678;-67
2021/01/01 10:39:51;;;;;;;4.17;2.60;;;21.90;50.50;;;;;;5076145;28;20216;-68
2021/01/01 10:42:16;;;;;;;3.87;2.27;;;21.90;50.50;;;;;;5075870;28;20170;-68
2021/01/01 10:44:42;;;;;;;3.80;2.57;;;21.90;50.50;;;;;;5075085;28;20633;-68
2021/01/01 10:47:08;;;;;;;4.23;2.53;;;21.90;50.50;;;;;;5074495;28;20604;-68
2021/01/01 10:49:34;;;;;;;3.67;2.23;;;21.90;50.50;;;;;;5075771;28;20171;-68
2021/01/01 10:52:00;;;;;;;3.67;2.63;;;21.90;50.50;;;;;;5075987;28;20562;-67
2021/01/01 10:54:26;;;;;;;3.17;2.27;;;21.90;50.50;;;;;;5075947;28;20447;-65
2021/01/01 10:56:51;;;;;;;3.30;2.70;;;21.90;50.60;;;;;;5075418;28;20331;-66
2021/01/01 10:59:17;;;;;;;2.73;2.20;;;21.90;50.50;;;;;;5075762;28;20931;-68
2021/01/01 11:01:43;;;;;;;2.30;2.03;;;22.00;50.60;;;;;;5075656;28;20621;-68
2021/01/01 11:04:08;;;;;;;2.93;2.50;;;22.00;50.60;;;;;;5075810;28;20155;-68
2021/01/01 11:06:35;;;;;;;4.60;2.60;;;22.00;50.60;;;;;;5075284;28;20186;-68
2021/01/01 11:09:01;;;;;;;4.67;2.10;;;22.00;50.60;;;;;;5075369;28;20548;-67
2021/01/01 11:11:27;;;;;;;3.10;2.60;;;22.00;50.60;;;;;;5075560;28;20443;-68
2021/01/01 12:20:47;;;;;;;2.63;2.20;;;22.00;50.80;;;;;;5074004;28;20397;-66
2021/01/01 12:25:34;;;;;;;2.53;2.20;;;21.90;50.90;;;;;;5074012;28;20523;-67
2021/01/01 12:28:03;;;;;;;2.13;1.90;;;21.90;50.90;;;;;;5073716;28;20244;-67
2021/01/01 12:30:31;;;;;;;4.70;2.43;;;21.90;50.90;;;;;;5073764;28;20193;-66
2021/01/01 12:32:57;;;;;;;2.60;2.30;;;21.90;50.90;;;;;;5073726;28;20405;-66
2021/01/01 12:35:23;;;;;;;2.73;2.20;;;21.90;51.40;;;;;;5073185;28;20404;-67
2021/01/01 12:37:59;;;;;;;7.57;2.53;;;21.90;50.90;;;;;;5073032;28;20517;-67
2021/01/01 12:40:26;;;;;;;4.03;2.77;;;21.90;50.90;;;;;;5073830;28;20212;-66
2021/01/01 12:42:51;;;;;;;4.60;2.93;;;21.90;50.90;;;;;;5074462;28;20950;-67
2021/01/01 12:45:17;;;;;;;3.73;2.67;;;21.90;50.90;;;;;;5073463;28;20404;-66
2021/01/01 12:47:42;;;;;;;2.90;2.10;;;21.90;50.90;;;;;;5072109;28;20598;-67
2021/01/01 12:50:08;;;;;;;4.60;2.47;;;21.90;50.90;;;;;;5073685;28;20181;-66
2021/01/01 12:52:34;;;;;;;7.47;2.97;;;21.90;50.90;;;;;;5073289;28;20193;-67
2021/01/01 12:54:59;;;;;;;3.67;2.70;;;21.90;50.80;;;;;;5073592;28;20444;-67
2021/01/01 12:57:25;;;;;;;4.00;3.00;;;21.90;51.40;;;;;;5073198;28;20772;-67
2021/01/01 12:59:51;;;;;;;13.90;3.40;;;21.80;50.80;;;;;;5073536;28;20198;-67
2021/01/01 13:02:16;;;;;;;7.40;3.10;;;21.80;50.90;;;;;;5073283;28;20244;-67
2021/01/01 13:04:42;;;;;;;5.03;2.97;;;21.80;50.90;;;;;;5073273;28;20249;-67
2021/01/01 13:07:07;;;;;;;10.83;5.57;;;21.80;50.90;;;;;;5071903;28;20237;-67
2021/01/01 13:09:33;;;;;;;9.60;5.53;;;21.80;50.90;;;;;;5073183;28;20177;-67
2021/01/01 13:11:58;;;;;;;8.50;4.50;;;21.80;50.90;;;;;;5073429;28;20240;-66
2021/01/01 13:14:24;;;;;;;5.90;4.33;;;21.80;50.80;;;;;;5073575;28;20174;-67
2021/01/01 13:16:50;;;;;;;10.63;6.70;;;21.80;50.90;;;;;;5073157;28;20208;-67
2021/01/01 13:19:15;;;;;;;13.27;7.87;;;21.70;50.90;;;;;;5073153;28;20178;-67
2021/01/01 13:21:44;;;;;;;21.20;13.27;;;21.80;51.00;;;;;;5072928;28;20258;-66
2021/01/01 13:24:10;;;;;;;20.83;11.10;;;21.70;50.90;;;;;;5073117;28;20173;-68
2021/01/01 13:26:36;;;;;;;21.43;13.10;;;21.70;50.90;;;;;;5072833;28;20444;-68
2021/01/01 13:29:03;;;;;;;26.63;13.67;;;21.70;50.90;;;;;;5072988;28;20544;-69
2021/01/01 13:31:34;;;;;;;29.93;15.00;;;21.80;51.00;;;;;;5072870;28;20648;-69
2021/01/01 13:34:00;;;;;;;36.87;18.63;;;21.80;51.00;;;;;;5072891;28;20482;-69
2021/01/01 13:36:25;;;;;;;31.30;19.70;;;21.80;51.00;;;;;;5072965;28;20449;-69
2021/01/01 13:38:51;;;;;;;35.53;19.70;;;21.70;50.90;;;;;;5073110;28;20170;-68
2021/01/01 13:41:17;;;;;;;46.60;23.37;;;21.80;51.00;;;;;;5072845;28;20162;-68
2021/01/01 13:43:44;;;;;;;47.97;22.87;;;21.80;51.00;;;;;;5073095;28;20182;-68
2021/01/01 13:46:20;;;;;;;45.97;26.47;;;21.70;50.90;;;;;;5072697;28;20170;-68
2021/01/01 13:48:46;;;;;;;46.30;25.90;;;21.80;51.00;;;;;;5076328;28;20740;-68
2021/01/01 13:51:11;;;;;;;48.80;26.43;;;21.80;51.00;;;;;;5077099;28;20473;-69
2021/01/01 13:53:37;;;;;;;49.33;27.03;;;21.80;51.00;;;;;;5076582;28;20227;-68
2021/01/01 13:56:02;;;;;;;50.37;26.83;;;21.80;51.00;;;;;;5077221;28;20154;-68